sensor_id;sensor_type;location;lat;lon;timestamp;pressure;altitude;pressure_sealevel;temperature;humidity
62864;BME280;48954;59.950;11.014;2023-03-23T00:03:00;97311.02;;;2.12;89.18
62864;BME280;48954;59.950;11.014;2023-03-23T00:06:04;97312.10;;;2.12;89.14
62864;BME280;48954;59.950;11.014;2023-03-23T00:09:23;97321.44;;;2.10;89.18
62864;BME280;48954;59.950;11.014;2023-03-23T00:12:35;97319.11;;;2.09;89.10
62864;BME280;48954;59.950;11.014;2023-03-23T00:21:15;97324.57;;;2.06;89.06
62864;BME280;48954;59.950;11.014;2023-03-23T02:34:12;97333.26;;;1.55;89.96
62864;BME280;48954;59.950;11.014;2023-03-23T02:59:58;97330.64;;;1.60;89.70
62864;BME280;48954;59.950;11.014;2023-03-23T06:01:00;97428.31;;;1.96;89.66
62864;BME280;48954;59.950;11.014;2023-03-23T07:52:12;97438.80;;;2.82;89.27
62864;BME280;48954;59.950;11.014;2023-03-23T09:55:45;97449.31;;;3.49;89.13
62864;BME280;48954;59.950;11.014;2023-03-23T13:11:10;97326.36;;;4.17;88.00
62864;BME280;48954;59.950;11.014;2023-03-23T13:13:54;97324.98;;;4.19;88.13
62864;BME280;48954;59.950;11.014;2023-03-23T13:19:47;97323.14;;;4.22;88.38
62864;BME280;48954;59.950;11.014;2023-03-23T13:23:02;97321.37;;;4.24;88.17
62864;BME280;48954;59.950;11.014;2023-03-23T13:35:43;97307.17;;;4.38;88.03
62864;BME280;48954;59.950;11.014;2023-03-23T13:38:23;97310.31;;;4.40;88.05
62864;BME280;48954;59.950;11.014;2023-03-23T13:40:51;97299.64;;;4.42;88.04
62864;BME280;48954;59.950;11.014;2023-03-23T13:43:32;97299.10;;;4.43;87.76
62864;BME280;48954;59.950;11.014;2023-03-23T13:52:22;97284.80;;;4.52;87.67
62864;BME280;48954;59.950;11.014;2023-03-23T13:54:50;97284.34;;;4.55;87.74
62864;BME280;48954;59.950;11.014;2023-03-23T14:28:42;97240.90;;;4.75;87.29
62864;BME280;48954;59.950;11.014;2023-03-23T14:34:23;97238.06;;;4.67;87.42
62864;BME280;48954;59.950;11.014;2023-03-23T14:36:55;97234.00;;;4.63;87.28
62864;BME280;48954;59.950;11.014;2023-03-23T14:49:23;97221.85;;;4.46;87.53
62864;BME280;48954;59.950;11.014;2023-03-23T14:59:18;97221.29;;;4.34;87.74
62864;BME280;48954;59.950;11.014;2023-03-23T15:01:47;97218.48;;;4.32;87.86
62864;BME280;48954;59.950;11.014;2023-03-23T15:04:56;97216.14;;;4.29;87.83
62864;BME280;48954;59.950;11.014;2023-03-23T15:12:09;97217.38;;;4.28;88.03
62864;BME280;48954;59.950;11.014;2023-03-23T15:18:01;97211.48;;;4.26;88.09
62864;BME280;48954;59.950;11.014;2023-03-23T15:27:34;97201.41;;;4.23;88.00
62864;BME280;48954;59.950;11.014;2023-03-23T15:34:01;97190.10;;;4.18;87.94
62864;BME280;48954;59.950;11.014;2023-03-23T15:36:49;97190.33;;;4.18;88.10
62864;BME280;48954;59.950;11.014;2023-03-23T15:45:25;97188.14;;;4.13;87.97
62864;BME280;48954;59.950;11.014;2023-03-23T15:47:49;97190.16;;;4.13;88.19
62864;BME280;48954;59.950;11.014;2023-03-23T15:50:49;97193.58;;;4.13;88.36
62864;BME280;48954;59.950;11.014;2023-03-23T15:53:28;97198.16;;;4.12;88.21
62864;BME280;48954;59.950;11.014;2023-03-23T15:55:54;97195.77;;;4.14;88.29
62864;BME280;48954;59.950;11.014;2023-03-23T15:58:25;97193.51;;;4.13;88.30
62864;BME280;48954;59.950;11.014;2023-03-23T16:01:10;97197.71;;;4.14;88.26
62864;BME280;48954;59.950;11.014;2023-03-23T16:03:55;97199.88;;;4.16;88.47
62864;BME280;48954;59.950;11.014;2023-03-23T16:06:32;97204.56;;;4.19;88.68
62864;BME280;48954;59.950;11.014;2023-03-23T16:13:00;97204.11;;;4.20;88.73
62864;BME280;48954;59.950;11.014;2023-03-23T16:15:39;97203.65;;;4.20;88.54
62864;BME280;48954;59.950;11.014;2023-03-23T16:31:08;97208.54;;;4.30;89.42
62864;BME280;48954;59.950;11.014;2023-03-23T16:43:12;97214.89;;;4.52;89.61
62864;BME280;48954;59.950;11.014;2023-03-23T16:51:43;97225.28;;;4.63;89.72
62864;BME280;48954;59.950;11.014;2023-03-23T16:54:09;97233.62;;;4.64;89.68
62864;BME280;48954;59.950;11.014;2023-03-23T16:59:58;97239.92;;;4.65;89.68
62864;BME280;48954;59.950;11.014;2023-03-23T17:05:59;97249.21;;;4.59;89.60
62864;BME280;48954;59.950;11.014;2023-03-23T17:08:26;97252.85;;;4.57;89.43
62864;BME280;48954;59.950;11.014;2023-03-23T17:10:52;97253.54;;;4.55;89.41
62864;BME280;48954;59.950;11.014;2023-03-23T17:13:22;97250.90;;;4.53;89.49
62864;BME280;48954;59.950;11.014;2023-03-23T17:15:53;97256.71;;;4.50;89.32
62864;BME280;48954;59.950;11.014;2023-03-23T17:18:22;97266.16;;;4.46;89.36
62864;BME280;48954;59.950;11.014;2023-03-23T17:20:50;97268.63;;;4.43;89.23
62864;BME280;48954;59.950;11.014;2023-03-23T17:23:17;97273.98;;;4.39;89.22
62864;BME280;48954;59.950;11.014;2023-03-23T17:25:47;97278.30;;;4.34;89.22
62864;BME280;48954;59.950;11.014;2023-03-23T17:28:14;97281.59;;;4.30;89.29
62864;BME280;48954;59.950;11.014;2023-03-23T17:30:42;97283.22;;;4.27;89.21
62864;BME280;48954;59.950;11.014;2023-03-23T17:33:15;97291.60;;;4.24;89.31
62864;BME280;48954;59.950;11.014;2023-03-23T17:35:44;97289.40;;;4.22;89.50
62864;BME280;48954;59.950;11.014;2023-03-23T17:38:12;97292.73;;;4.21;89.28
62864;BME280;48954;59.950;11.014;2023-03-23T17:40:42;97290.45;;;4.19;89.28
62864;BME280;48954;59.950;11.014;2023-03-23T17:43:10;97296.58;;;4.17;89.41
62864;BME280;48954;59.950;11.014;2023-03-23T17:45:54;97294.71;;;4.16;89.48
62864;BME280;48954;59.950;11.014;2023-03-23T17:48:21;97302.32;;;4.13;89.35
62864;BME280;48954;59.950;11.014;2023-03-23T17:50:58;97296.77;;;4.10;89.32
62864;BME280;48954;59.950;11.014;2023-03-23T17:53:32;97303.59;;;4.09;89.41
62864;BME280;48954;59.950;11.014;2023-03-23T18:00:05;97315.63;;;4.07;89.39
62864;BME280;48954;59.950;11.014;2023-03-23T19:24:19;97363.70;;;3.82;90.05
62864;BME280;48954;59.950;11.014;2023-03-23T19:27:30;97369.64;;;3.84;90.23
62864;BME280;48954;59.950;11.014;2023-03-23T19:30:11;97370.05;;;3.86;90.08
62864;BME280;48954;59.950;11.014;2023-03-23T19:35:59;97377.31;;;3.89;90.04
62864;BME280;48954;59.950;11.014;2023-03-23T19:41:44;97381.13;;;3.92;89.82
62864;BME280;48954;59.950;11.014;2023-03-23T19:44:49;97383.33;;;3.93;89.96
62864;BME280;48954;59.950;11.014;2023-03-23T19:47:50;97381.22;;;3.93;89.70
62864;BME280;48954;59.950;11.014;2023-03-23T19:50:51;97384.16;;;3.90;89.43
62864;BME280;48954;59.950;11.014;2023-03-23T19:53:51;97390.81;;;3.88;89.39
62864;BME280;48954;59.950;11.014;2023-03-23T19:57:24;97395.13;;;3.84;89.39
62864;BME280;48954;59.950;11.014;2023-03-23T20:00:37;97396.33;;;3.81;89.28
62864;BME280;48954;59.950;11.014;2023-03-23T20:03:21;97400.88;;;3.78;89.37
62864;BME280;48954;59.950;11.014;2023-03-23T20:06:08;97405.91;;;3.76;89.33
62864;BME280;48954;59.950;11.014;2023-03-23T20:08:52;97407.83;;;3.73;89.31
62864;BME280;48954;59.950;11.014;2023-03-23T20:11:33;97407.70;;;3.70;89.30
62864;BME280;48954;59.950;11.014;2023-03-23T20:17:58;97405.37;;;3.63;89.42
62864;BME280;48954;59.950;11.014;2023-03-23T20:20:39;97398.77;;;3.56;89.07
62864;BME280;48954;59.950;11.014;2023-03-23T20:23:34;97399.33;;;3.51;89.30
62864;BME280;48954;59.950;11.014;2023-03-23T20:26:32;97400.38;;;3.48;89.49
62864;BME280;48954;59.950;11.014;2023-03-23T20:29:11;97402.89;;;3.45;89.46
62864;BME280;48954;59.950;11.014;2023-03-23T20:32:04;97404.14;;;3.40;89.42
62864;BME280;48954;59.950;11.014;2023-03-23T20:38:13;97397.71;;;3.28;89.43
62864;BME280;48954;59.950;11.014;2023-03-23T20:40:53;97399.92;;;3.26;89.51
62864;BME280;48954;59.950;11.014;2023-03-23T20:43:37;97391.98;;;3.22;89.41
62864;BME280;48954;59.950;11.014;2023-03-23T20:48:59;97387.66;;;3.14;89.42
62864;BME280;48954;59.950;11.014;2023-03-23T20:51:26;97380.39;;;3.09;89.42
62864;BME280;48954;59.950;11.014;2023-03-23T20:53:55;97385.40;;;3.07;89.46
62864;BME280;48954;59.950;11.014;2023-03-23T20:56:39;97385.09;;;3.03;89.35
62864;BME280;48954;59.950;11.014;2023-03-23T20:59:33;97384.27;;;2.99;89.45
62864;BME280;48954;59.950;11.014;2023-03-23T21:01:59;97383.80;;;2.97;89.43
62864;BME280;48954;59.950;11.014;2023-03-23T21:08:09;97377.07;;;2.94;89.44
62864;BME280;48954;59.950;11.014;2023-03-23T21:10:36;97379.54;;;2.93;89.43
62864;BME280;48954;59.950;11.014;2023-03-23T21:13:29;97381.83;;;2.91;89.34
62864;BME280;48954;59.950;11.014;2023-03-23T21:16:00;97384.60;;;2.90;89.33
62864;BME280;48954;59.950;11.014;2023-03-23T21:18:27;97384.58;;;2.88;89.28
62864;BME280;48954;59.950;11.014;2023-03-23T21:24:03;97380.21;;;2.86;89.31
62864;BME280;48954;59.950;11.014;2023-03-23T21:26:31;97376.25;;;2.85;89.22
62864;BME280;48954;59.950;11.014;2023-03-23T21:32:03;97383.14;;;2.83;89.14
62864;BME280;48954;59.950;11.014;2023-03-23T21:38:06;97374.34;;;2.82;89.03
62864;BME280;48954;59.950;11.014;2023-03-23T21:40:41;97375.04;;;2.81;89.02
62864;BME280;48954;59.950;11.014;2023-03-23T21:43:40;97376.52;;;2.82;89.00
62864;BME280;48954;59.950;11.014;2023-03-23T21:46:24;97376.05;;;2.81;88.95
62864;BME280;48954;59.950;11.014;2023-03-23T21:48:53;97372.48;;;2.82;89.04
62864;BME280;48954;59.950;11.014;2023-03-23T21:51:23;97370.11;;;2.83;88.91
62864;BME280;48954;59.950;11.014;2023-03-23T21:54:04;97375.85;;;2.83;88.86
62864;BME280;48954;59.950;11.014;2023-03-23T21:57:13;97380.73;;;2.84;88.77
62864;BME280;48954;59.950;11.014;2023-03-23T22:00:00;97383.31;;;2.85;88.80
62864;BME280;48954;59.950;11.014;2023-03-23T22:02:40;97385.09;;;2.85;88.68
62864;BME280;48954;59.950;11.014;2023-03-23T22:05:43;97385.41;;;2.86;88.58
62864;BME280;48954;59.950;11.014;2023-03-23T22:08:26;97384.00;;;2.85;88.53
62864;BME280;48954;59.950;11.014;2023-03-23T22:11:30;97386.65;;;2.86;88.58
62864;BME280;48954;59.950;11.014;2023-03-23T22:17:24;97393.48;;;2.85;88.42
62864;BME280;48954;59.950;11.014;2023-03-23T22:23:56;97410.60;;;2.84;88.34
62864;BME280;48954;59.950;11.014;2023-03-23T22:32:14;97411.55;;;2.81;88.29
62864;BME280;48954;59.950;11.014;2023-03-23T22:35:00;97411.43;;;2.78;88.28
62864;BME280;48954;59.950;11.014;2023-03-23T22:37:46;97407.11;;;2.76;88.27
62864;BME280;48954;59.950;11.014;2023-03-23T22:40:34;97403.52;;;2.73;88.32
62864;BME280;48954;59.950;11.014;2023-03-23T22:43:21;97403.96;;;2.71;88.38
62864;BME280;48954;59.950;11.014;2023-03-23T22:49:11;97411.14;;;2.64;88.36
62864;BME280;48954;59.950;11.014;2023-03-23T22:52:15;97410.45;;;2.61;88.35
62864;BME280;48954;59.950;11.014;2023-03-23T22:54:59;97420.11;;;2.57;88.32
62864;BME280;48954;59.950;11.014;2023-03-23T22:57:43;97426.17;;;2.55;88.54
62864;BME280;48954;59.950;11.014;2023-03-23T23:00:30;97429.17;;;2.53;88.58
62864;BME280;48954;59.950;11.014;2023-03-23T23:03:32;97432.55;;;2.51;88.70
62864;BME280;48954;59.950;11.014;2023-03-23T23:06:19;97434.54;;;2.49;88.69
62864;BME280;48954;59.950;11.014;2023-03-23T23:09:37;97434.92;;;2.49;88.79
62864;BME280;48954;59.950;11.014;2023-03-23T23:12:20;97443.17;;;2.51;88.81
62864;BME280;48954;59.950;11.014;2023-03-23T23:15:37;97445.70;;;2.53;88.82
62864;BME280;48954;59.950;11.014;2023-03-23T23:24:24;97449.52;;;2.55;88.90
62864;BME280;48954;59.950;11.014;2023-03-23T23:27:27;97452.88;;;2.55;88.76
62864;BME280;48954;59.950;11.014;2023-03-23T23:33:18;97460.34;;;2.62;89.08
62864;BME280;48954;59.950;11.014;2023-03-23T23:36:00;97459.16;;;2.66;89.15
